sensor_id;sensor_type;location;lat;lon;timestamp;temperature;humidity
34145;HTU21D;69555;53.014;8.886;2024-03-08T00:02:19;1.42;97.36
34145;HTU21D;69555;53.014;8.886;2024-03-08T00:04:46;1.45;96.74
34145;HTU21D;69555;53.014;8.886;2024-03-08T00:07:11;1.45;96.75
34145;HTU21D;69555;53.014;8.886;2024-03-08T00:09:39;1.43;96.66
34145;HTU21D;69555;53.014;8.886;2024-03-08T00:12:05;1.47;96.19
34145;HTU21D;69555;53.014;8.886;2024-03-08T00:14:33;1.41;96.29
34145;HTU21D;69555;53.014;8.886;2024-03-08T00:16:59;1.47;96.14
34145;HTU21D;69555;53.014;8.886;2024-03-08T00:19:26;1.43;95.62
34145;HTU21D;69555;53.014;8.886;2024-03-08T00:21:51;1.39;96.19
34145;HTU21D;69555;53.014;8.886;2024-03-08T00:24:17;1.33;96.55
34145;HTU21D;69555;53.014;8.886;2024-03-08T00:26:42;1.34;96.57
34145;HTU21D;69555;53.014;8.886;2024-03-08T00:29:08;1.29;96.53
34145;HTU21D;69555;53.014;8.886;2024-03-08T00:31:34;1.31;96.68
34145;HTU21D;69555;53.014;8.886;2024-03-08T00:34:00;1.31;97.00
34145;HTU21D;69555;53.014;8.886;2024-03-08T00:36:27;1.19;97.31
34145;HTU21D;69555;53.014;8.886;2024-03-08T00:38:55;1.08;97.94
34145;HTU21D;69555;53.014;8.886;2024-03-08T00:41:20;0.97;98.31
34145;HTU21D;69555;53.014;8.886;2024-03-08T00:43:46;0.99;98.44
34145;HTU21D;69555;53.014;8.886;2024-03-08T00:46:13;0.96;98.71
34145;HTU21D;69555;53.014;8.886;2024-03-08T00:48:41;0.92;99.03
34145;HTU21D;69555;53.014;8.886;2024-03-08T00:51:10;0.99;98.33
34145;HTU21D;69555;53.014;8.886;2024-03-08T00:53:35;0.96;98.80
34145;HTU21D;69555;53.014;8.886;2024-03-08T00:56:01;0.89;98.80
34145;HTU21D;69555;53.014;8.886;2024-03-08T00:58:26;0.90;99.11
34145;HTU21D;69555;53.014;8.886;2024-03-08T01:00:53;0.89;99.02
34145;HTU21D;69555;53.014;8.886;2024-03-08T01:03:19;0.97;98.70
34145;HTU21D;69555;53.014;8.886;2024-03-08T01:05:45;0.93;98.90
34145;HTU21D;69555;53.014;8.886;2024-03-08T01:08:11;0.91;98.93
34145;HTU21D;69555;53.014;8.886;2024-03-08T01:10:37;0.91;98.68
34145;HTU21D;69555;53.014;8.886;2024-03-08T01:13:02;0.87;99.21
34145;HTU21D;69555;53.014;8.886;2024-03-08T01:15:28;0.84;98.77
34145;HTU21D;69555;53.014;8.886;2024-03-08T01:17:55;0.90;98.74
34145;HTU21D;69555;53.014;8.886;2024-03-08T01:20:22;0.84;98.91
34145;HTU21D;69555;53.014;8.886;2024-03-08T01:22:48;0.89;98.61
34145;HTU21D;69555;53.014;8.886;2024-03-08T01:25:14;0.80;98.85
34145;HTU21D;69555;53.014;8.886;2024-03-08T01:27:39;0.91;98.48
34145;HTU21D;69555;53.014;8.886;2024-03-08T01:30:05;0.87;98.11
34145;HTU21D;69555;53.014;8.886;2024-03-08T01:32:31;0.90;98.06
34145;HTU21D;69555;53.014;8.886;2024-03-08T01:34:56;0.88;98.23
34145;HTU21D;69555;53.014;8.886;2024-03-08T01:37:23;0.76;98.77
34145;HTU21D;69555;53.014;8.886;2024-03-08T01:39:49;0.76;98.96
34145;HTU21D;69555;53.014;8.886;2024-03-08T01:42:14;0.68;99.47
34145;HTU21D;69555;53.014;8.886;2024-03-08T01:44:43;0.75;99.14
34145;HTU21D;69555;53.014;8.886;2024-03-08T01:47:10;0.73;99.01
34145;HTU21D;69555;53.014;8.886;2024-03-08T01:49:37;0.72;99.03
34145;HTU21D;69555;53.014;8.886;2024-03-08T01:52:03;0.65;99.40
34145;HTU21D;69555;53.014;8.886;2024-03-08T01:54:30;0.66;99.49
34145;HTU21D;69555;53.014;8.886;2024-03-08T01:56:58;0.68;99.50
34145;HTU21D;69555;53.014;8.886;2024-03-08T01:59:25;0.63;99.39
34145;HTU21D;69555;53.014;8.886;2024-03-08T02:01:55;0.60;99.83
34145;HTU21D;69555;53.014;8.886;2024-03-08T02:04:23;0.59;99.64
34145;HTU21D;69555;53.014;8.886;2024-03-08T02:06:51;0.59;99.65
34145;HTU21D;69555;53.014;8.886;2024-03-08T02:09:19;0.57;99.74
34145;HTU21D;69555;53.014;8.886;2024-03-08T02:11:46;0.52;100.05
34145;HTU21D;69555;53.014;8.886;2024-03-08T02:14:12;0.50;100.32
34145;HTU21D;69555;53.014;8.886;2024-03-08T02:16:39;0.48;100.54
34145;HTU21D;69555;53.014;8.886;2024-03-08T02:19:06;0.54;100.33
34145;HTU21D;69555;53.014;8.886;2024-03-08T02:21:35;0.46;100.90
34145;HTU21D;69555;53.014;8.886;2024-03-08T02:24:04;0.30;101.77
34145;HTU21D;69555;53.014;8.886;2024-03-08T02:26:31;0.32;101.67
34145;HTU21D;69555;53.014;8.886;2024-03-08T02:28:58;0.33;101.68
34145;HTU21D;69555;53.014;8.886;2024-03-08T02:31:25;0.38;101.48
34145;HTU21D;69555;53.014;8.886;2024-03-08T02:33:52;0.27;102.12
34145;HTU21D;69555;53.014;8.886;2024-03-08T02:36:18;0.31;102.15
34145;HTU21D;69555;53.014;8.886;2024-03-08T02:38:44;0.25;102.28
34145;HTU21D;69555;53.014;8.886;2024-03-08T02:41:11;0.32;101.79
34145;HTU21D;69555;53.014;8.886;2024-03-08T02:43:39;0.24;102.57
34145;HTU21D;69555;53.014;8.886;2024-03-08T02:46:06;0.18;102.88
34145;HTU21D;69555;53.014;8.886;2024-03-08T02:48:33;0.23;102.63
34145;HTU21D;69555;53.014;8.886;2024-03-08T02:51:00;0.16;103.09
34145;HTU21D;69555;53.014;8.886;2024-03-08T02:53:29;0.14;103.11
34145;HTU21D;69555;53.014;8.886;2024-03-08T02:55:55;0.10;103.70
34145;HTU21D;69555;53.014;8.886;2024-03-08T02:58:24;0.09;103.76
34145;HTU21D;69555;53.014;8.886;2024-03-08T03:00:50;0.15;103.68
34145;HTU21D;69555;53.014;8.886;2024-03-08T03:03:17;-0.02;104.70
34145;HTU21D;69555;53.014;8.886;2024-03-08T03:05:44;-0.01;104.60
34145;HTU21D;69555;53.014;8.886;2024-03-08T03:08:09;0.03;104.54
34145;HTU21D;69555;53.014;8.886;2024-03-08T03:10:36;0.01;104.37
34145;HTU21D;69555;53.014;8.886;2024-03-08T03:13:03;0.06;104.18
34145;HTU21D;69555;53.014;8.886;2024-03-08T03:15:34;0.09;103.73
34145;HTU21D;69555;53.014;8.886;2024-03-08T03:18:00;0.06;103.86
34145;HTU21D;69555;53.014;8.886;2024-03-08T03:20:25;0.03;104.34
34145;HTU21D;69555;53.014;8.886;2024-03-08T03:22:57;0.05;104.28
34145;HTU21D;69555;53.014;8.886;2024-03-08T03:25:23;0.12;104.28
34145;HTU21D;69555;53.014;8.886;2024-03-08T03:27:52;0.04;104.43
34145;HTU21D;69555;53.014;8.886;2024-03-08T03:30:22;-0.00;104.63
34145;HTU21D;69555;53.014;8.886;2024-03-08T03:32:49;0.03;104.47
34145;HTU21D;69555;53.014;8.886;2024-03-08T03:35:18;0.05;104.36
34145;HTU21D;69555;53.014;8.886;2024-03-08T03:37:47;0.04;104.46
34145;HTU21D;69555;53.014;8.886;2024-03-08T03:40:38;-0.01;104.85
34145;HTU21D;69555;53.014;8.886;2024-03-08T03:43:05;-0.03;104.75
34145;HTU21D;69555;53.014;8.886;2024-03-08T03:45:31;0.04;104.64
34145;HTU21D;69555;53.014;8.886;2024-03-08T03:48:01;-0.00;104.75
34145;HTU21D;69555;53.014;8.886;2024-03-08T03:50:27;-0.03;104.91
34145;HTU21D;69555;53.014;8.886;2024-03-08T03:52:54;-0.09;105.40
34145;HTU21D;69555;53.014;8.886;2024-03-08T03:55:20;-0.13;105.70
34145;HTU21D;69555;53.014;8.886;2024-03-08T03:57:47;-0.14;105.87
34145;HTU21D;69555;53.014;8.886;2024-03-08T04:00:14;-0.21;106.44
34145;HTU21D;69555;53.014;8.886;2024-03-08T04:02:41;-0.21;106.42
34145;HTU21D;69555;53.014;8.886;2024-03-08T04:05:09;-0.20;106.47
34145;HTU21D;69555;53.014;8.886;2024-03-08T04:07:37;-0.26;107.19
34145;HTU21D;69555;53.014;8.886;2024-03-08T04:10:05;-0.23;107.02
34145;HTU21D;69555;53.014;8.886;2024-03-08T04:12:36;-0.23;107.03
34145;HTU21D;69555;53.014;8.886;2024-03-08T04:15:03;-0.19;107.01
34145;HTU21D;69555;53.014;8.886;2024-03-08T04:17:28;-0.22;107.16
34145;HTU21D;69555;53.014;8.886;2024-03-08T04:19:54;-0.17;106.91
34145;HTU21D;69555;53.014;8.886;2024-03-08T04:22:20;-0.26;107.49
34145;HTU21D;69555;53.014;8.886;2024-03-08T04:24:46;-0.27;107.30
34145;HTU21D;69555;53.014;8.886;2024-03-08T04:27:14;-0.29;107.66
34145;HTU21D;69555;53.014;8.886;2024-03-08T04:29:41;-0.30;107.81
34145;HTU21D;69555;53.014;8.886;2024-03-08T04:32:09;-0.32;107.86
34145;HTU21D;69555;53.014;8.886;2024-03-08T04:34:36;-0.35;108.09
34145;HTU21D;69555;53.014;8.886;2024-03-08T04:37:02;-0.36;108.28
34145;HTU21D;69555;53.014;8.886;2024-03-08T04:39:29;-0.35;108.17
34145;HTU21D;69555;53.014;8.886;2024-03-08T04:41:59;-0.34;108.11
34145;HTU21D;69555;53.014;8.886;2024-03-08T04:44:28;-0.31;107.95
34145;HTU21D;69555;53.014;8.886;2024-03-08T04:46:55;-0.40;108.33
34145;HTU21D;69555;53.014;8.886;2024-03-08T04:49:21;-0.40;108.54
34145;HTU21D;69555;53.014;8.886;2024-03-08T04:51:49;-0.38;108.69
34145;HTU21D;69555;53.014;8.886;2024-03-08T04:54:14;-0.42;108.75
34145;HTU21D;69555;53.014;8.886;2024-03-08T04:56:40;-0.41;108.72
34145;HTU21D;69555;53.014;8.886;2024-03-08T04:59:06;-0.39;108.36
34145;HTU21D;69555;53.014;8.886;2024-03-08T05:01:34;-0.38;108.38
34145;HTU21D;69555;53.014;8.886;2024-03-08T05:04:00;-0.44;108.46
34145;HTU21D;69555;53.014;8.886;2024-03-08T05:06:26;-0.50;108.94
34145;HTU21D;69555;53.014;8.886;2024-03-08T05:08:51;-0.46;108.96
34145;HTU21D;69555;53.014;8.886;2024-03-08T05:11:17;-0.51;109.20
34145;HTU21D;69555;53.014;8.886;2024-03-08T05:13:43;-0.41;108.52
34145;HTU21D;69555;53.014;8.886;2024-03-08T05:16:10;-0.42;108.46
34145;HTU21D;69555;53.014;8.886;2024-03-08T05:18:35;-0.44;108.78
34145;HTU21D;69555;53.014;8.886;2024-03-08T05:21:02;-0.50;108.95
34145;HTU21D;69555;53.014;8.886;2024-03-08T05:23:30;-0.49;108.97
34145;HTU21D;69555;53.014;8.886;2024-03-08T05:25:56;-0.50;108.88
34145;HTU21D;69555;53.014;8.886;2024-03-08T05:28:22;-0.47;108.85
34145;HTU21D;69555;53.014;8.886;2024-03-08T05:30:49;-0.52;109.30
34145;HTU21D;69555;53.014;8.886;2024-03-08T05:33:15;-0.54;109.31
34145;HTU21D;69555;53.014;8.886;2024-03-08T05:35:42;-0.47;109.17
34145;HTU21D;69555;53.014;8.886;2024-03-08T05:38:08;-0.50;109.13
34145;HTU21D;69555;53.014;8.886;2024-03-08T05:40:34;-0.41;108.44
34145;HTU21D;69555;53.014;8.886;2024-03-08T05:42:59;-0.44;108.59
34145;HTU21D;69555;53.014;8.886;2024-03-08T05:45:26;-0.44;108.62
34145;HTU21D;69555;53.014;8.886;2024-03-08T05:47:53;-0.47;108.81
34145;HTU21D;69555;53.014;8.886;2024-03-08T05:50:19;-0.40;108.44
34145;HTU21D;69555;53.014;8.886;2024-03-08T05:52:46;-0.37;108.18
34145;HTU21D;69555;53.014;8.886;2024-03-08T05:55:16;-0.36;107.87
34145;HTU21D;69555;53.014;8.886;2024-03-08T05:57:41;-0.32;107.75
34145;HTU21D;69555;53.014;8.886;2024-03-08T06:00:08;-0.38;107.97
34145;HTU21D;69555;53.014;8.886;2024-03-08T06:02:36;-0.37;107.73
34145;HTU21D;69555;53.014;8.886;2024-03-08T06:05:12;-0.35;107.93
34145;HTU21D;69555;53.014;8.886;2024-03-08T06:07:39;-0.24;107.01
34145;HTU21D;69555;53.014;8.886;2024-03-08T06:10:07;-0.19;106.37
34145;HTU21D;69555;53.014;8.886;2024-03-08T06:12:36;-0.19;106.27
34145;HTU21D;69555;53.014;8.886;2024-03-08T06:15:08;-0.08;104.72
34145;HTU21D;69555;53.014;8.886;2024-03-08T06:17:35;-0.02;104.48
34145;HTU21D;69555;53.014;8.886;2024-03-08T06:20:03;-0.05;105.27
34145;HTU21D;69555;53.014;8.886;2024-03-08T06:22:42;-0.03;104.54
34145;HTU21D;69555;53.014;8.886;2024-03-08T06:25:09;0.12;104.40
34145;HTU21D;69555;53.014;8.886;2024-03-08T06:27:37;0.51;102.47
34145;HTU21D;69555;53.014;8.886;2024-03-08T06:30:03;0.91;99.25
34145;HTU21D;69555;53.014;8.886;2024-03-08T06:32:30;1.20;97.22
34145;HTU21D;69555;53.014;8.886;2024-03-08T06:34:56;1.35;96.79
34145;HTU21D;69555;53.014;8.886;2024-03-08T06:37:21;1.38;94.89
34145;HTU21D;69555;53.014;8.886;2024-03-08T06:39:48;1.54;94.65
34145;HTU21D;69555;53.014;8.886;2024-03-08T06:42:14;1.96;92.63
34145;HTU21D;69555;53.014;8.886;2024-03-08T06:44:41;2.35;90.14
34145;HTU21D;69555;53.014;8.886;2024-03-08T06:47:14;2.51;89.02
34145;HTU21D;69555;53.014;8.886;2024-03-08T06:49:41;2.51;89.22
34145;HTU21D;69555;53.014;8.886;2024-03-08T06:52:08;2.61;88.60
34145;HTU21D;69555;53.014;8.886;2024-03-08T06:54:34;2.91;86.59
34145;HTU21D;69555;53.014;8.886;2024-03-08T06:57:03;2.76;87.62
34145;HTU21D;69555;53.014;8.886;2024-03-08T06:59:31;2.57;89.28
34145;HTU21D;69555;53.014;8.886;2024-03-08T07:01:57;2.54;88.97
34145;HTU21D;69555;53.014;8.886;2024-03-08T07:04:25;2.08;91.54
34145;HTU21D;69555;53.014;8.886;2024-03-08T07:06:58;1.78;93.80
34145;HTU21D;69555;53.014;8.886;2024-03-08T07:09:24;1.71;93.87
34145;HTU21D;69555;53.014;8.886;2024-03-08T07:11:51;2.10;92.66
34145;HTU21D;69555;53.014;8.886;2024-03-08T07:14:24;2.62;89.60
34145;HTU21D;69555;53.014;8.886;2024-03-08T07:16:50;3.95;84.07
34145;HTU21D;69555;53.014;8.886;2024-03-08T07:19:19;3.99;81.88
34145;HTU21D;69555;53.014;8.886;2024-03-08T07:21:44;4.49;79.75
34145;HTU21D;69555;53.014;8.886;2024-03-08T07:24:11;4.71;79.86
34145;HTU21D;69555;53.014;8.886;2024-03-08T07:26:43;5.35;76.04
34145;HTU21D;69555;53.014;8.886;2024-03-08T07:29:10;5.04;77.18
34145;HTU21D;69555;53.014;8.886;2024-03-08T07:31:37;4.74;76.72
34145;HTU21D;69555;53.014;8.886;2024-03-08T07:34:02;5.90;72.77
34145;HTU21D;69555;53.014;8.886;2024-03-08T07:36:28;5.51;74.82
34145;HTU21D;69555;53.014;8.886;2024-03-08T07:38:54;5.96;73.02
34145;HTU21D;69555;53.014;8.886;2024-03-08T07:41:19;5.40;73.62
34145;HTU21D;69555;53.014;8.886;2024-03-08T07:43:45;5.85;72.38
34145;HTU21D;69555;53.014;8.886;2024-03-08T07:46:12;5.40;72.23
34145;HTU21D;69555;53.014;8.886;2024-03-08T07:48:39;4.32;77.70
34145;HTU21D;69555;53.014;8.886;2024-03-08T07:51:06;4.57;77.26
34145;HTU21D;69555;53.014;8.886;2024-03-08T07:53:35;4.01;78.78
34145;HTU21D;69555;53.014;8.886;2024-03-08T07:56:01;4.62;76.92
34145;HTU21D;69555;53.014;8.886;2024-03-08T07:58:26;4.81;76.89
34145;HTU21D;69555;53.014;8.886;2024-03-08T08:00:53;5.10;75.13
34145;HTU21D;69555;53.014;8.886;2024-03-08T08:03:21;5.47;72.88
34145;HTU21D;69555;53.014;8.886;2024-03-08T08:05:46;4.97;75.45
34145;HTU21D;69555;53.014;8.886;2024-03-08T08:08:12;4.94;76.08
34145;HTU21D;69555;53.014;8.886;2024-03-08T08:10:37;4.83;76.87
34145;HTU21D;69555;53.014;8.886;2024-03-08T08:13:03;5.21;74.86
34145;HTU21D;69555;53.014;8.886;2024-03-08T08:15:32;4.48;77.10
34145;HTU21D;69555;53.014;8.886;2024-03-08T08:18:02;3.95;79.94
34145;HTU21D;69555;53.014;8.886;2024-03-08T08:20:30;4.22;79.00
34145;HTU21D;69555;53.014;8.886;2024-03-08T08:22:57;3.86;80.12
34145;HTU21D;69555;53.014;8.886;2024-03-08T08:25:24;4.30;78.05
34145;HTU21D;69555;53.014;8.886;2024-03-08T08:27:51;4.07;78.76
34145;HTU21D;69555;53.014;8.886;2024-03-08T08:30:16;4.19;79.61
34145;HTU21D;69555;53.014;8.886;2024-03-08T08:32:42;4.42;78.50
34145;HTU21D;69555;53.014;8.886;2024-03-08T08:35:09;4.02;79.62
34145;HTU21D;69555;53.014;8.886;2024-03-08T08:37:41;4.43;78.27
34145;HTU21D;69555;53.014;8.886;2024-03-08T08:40:08;4.29;79.30
34145;HTU21D;69555;53.014;8.886;2024-03-08T08:42:40;4.09;79.61
34145;HTU21D;69555;53.014;8.886;2024-03-08T08:45:05;4.08;79.41
34145;HTU21D;69555;53.014;8.886;2024-03-08T08:47:37;4.65;78.50
34145;HTU21D;69555;53.014;8.886;2024-03-08T08:50:04;4.89;75.31
34145;HTU21D;69555;53.014;8.886;2024-03-08T08:52:31;5.40;74.60
34145;HTU21D;69555;53.014;8.886;2024-03-08T08:54:57;5.16;77.02
34145;HTU21D;69555;53.014;8.886;2024-03-08T08:57:23;5.90;74.82
34145;HTU21D;69555;53.014;8.886;2024-03-08T08:59:49;4.74;77.44
34145;HTU21D;69555;53.014;8.886;2024-03-08T09:02:15;5.16;78.42
34145;HTU21D;69555;53.014;8.886;2024-03-08T09:04:42;5.23;75.47
34145;HTU21D;69555;53.014;8.886;2024-03-08T09:07:09;5.54;75.50
34145;HTU21D;69555;53.014;8.886;2024-03-08T09:09:35;5.11;74.92
34145;HTU21D;69555;53.014;8.886;2024-03-08T09:12:01;5.40;73.83
34145;HTU21D;69555;53.014;8.886;2024-03-08T09:14:26;5.24;76.03
34145;HTU21D;69555;53.014;8.886;2024-03-08T09:16:52;5.26;75.37
34145;HTU21D;69555;53.014;8.886;2024-03-08T09:19:17;5.68;73.11
34145;HTU21D;69555;53.014;8.886;2024-03-08T09:21:46;5.57;72.14
34145;HTU21D;69555;53.014;8.886;2024-03-08T09:24:13;5.56;74.92
34145;HTU21D;69555;53.014;8.886;2024-03-08T09:26:40;5.86;71.94
34145;HTU21D;69555;53.014;8.886;2024-03-08T09:29:08;5.70;73.67
34145;HTU21D;69555;53.014;8.886;2024-03-08T09:31:36;5.80;73.68
34145;HTU21D;69555;53.014;8.886;2024-03-08T09:34:03;5.43;72.60
34145;HTU21D;69555;53.014;8.886;2024-03-08T09:36:30;5.70;71.74
34145;HTU21D;69555;53.014;8.886;2024-03-08T09:38:58;5.65;73.47
34145;HTU21D;69555;53.014;8.886;2024-03-08T09:41:26;5.39;73.48
34145;HTU21D;69555;53.014;8.886;2024-03-08T09:43:51;5.69;73.51
34145;HTU21D;69555;53.014;8.886;2024-03-08T09:46:19;5.83;72.67
34145;HTU21D;69555;53.014;8.886;2024-03-08T09:48:45;5.59;73.13
34145;HTU21D;69555;53.014;8.886;2024-03-08T09:51:13;5.55;74.20
34145;HTU21D;69555;53.014;8.886;2024-03-08T09:53:42;5.98;72.82
34145;HTU21D;69555;53.014;8.886;2024-03-08T09:56:07;5.94;73.49
34145;HTU21D;69555;53.014;8.886;2024-03-08T09:58:33;6.09;71.34
34145;HTU21D;69555;53.014;8.886;2024-03-08T10:00:59;6.26;72.19
34145;HTU21D;69555;53.014;8.886;2024-03-08T10:03:30;6.20;71.91
34145;HTU21D;69555;53.014;8.886;2024-03-08T10:05:59;6.05;70.72
34145;HTU21D;69555;53.014;8.886;2024-03-08T10:08:30;6.20;72.58
34145;HTU21D;69555;53.014;8.886;2024-03-08T10:10:56;6.59;70.63
34145;HTU21D;69555;53.014;8.886;2024-03-08T10:13:25;6.41;69.52
34145;HTU21D;69555;53.014;8.886;2024-03-08T10:15:52;6.43;72.03
34145;HTU21D;69555;53.014;8.886;2024-03-08T10:18:17;6.44;71.35
34145;HTU21D;69555;53.014;8.886;2024-03-08T10:20:43;6.66;70.13
34145;HTU21D;69555;53.014;8.886;2024-03-08T10:23:09;6.59;69.83
34145;HTU21D;69555;53.014;8.886;2024-03-08T10:25:36;6.23;70.72
34145;HTU21D;69555;53.014;8.886;2024-03-08T10:28:08;6.35;69.81
34145;HTU21D;69555;53.014;8.886;2024-03-08T10:30:35;6.28;71.13
34145;HTU21D;69555;53.014;8.886;2024-03-08T10:33:02;6.44;69.68
34145;HTU21D;69555;53.014;8.886;2024-03-08T10:35:31;6.61;70.99
34145;HTU21D;69555;53.014;8.886;2024-03-08T10:37:57;6.70;70.20
34145;HTU21D;69555;53.014;8.886;2024-03-08T10:40:27;6.86;68.97
34145;HTU21D;69555;53.014;8.886;2024-03-08T10:42:54;6.82;68.85
34145;HTU21D;69555;53.014;8.886;2024-03-08T10:45:39;6.81;67.25
34145;HTU21D;69555;53.014;8.886;2024-03-08T10:50:51;6.85;69.75
34145;HTU21D;69555;53.014;8.886;2024-03-08T10:53:18;6.96;67.96
34145;HTU21D;69555;53.014;8.886;2024-03-08T10:55:49;7.24;68.24
34145;HTU21D;69555;53.014;8.886;2024-03-08T10:58:20;6.91;68.18
34145;HTU21D;69555;53.014;8.886;2024-03-08T11:00:47;7.00;66.30
34145;HTU21D;69555;53.014;8.886;2024-03-08T11:06:07;7.11;66.62
34145;HTU21D;69555;53.014;8.886;2024-03-08T11:08:36;7.27;65.85
34145;HTU21D;69555;53.014;8.886;2024-03-08T11:11:02;7.26;66.46
34145;HTU21D;69555;53.014;8.886;2024-03-08T11:13:41;7.10;65.54
34145;HTU21D;69555;53.014;8.886;2024-03-08T11:16:14;7.24;66.82
34145;HTU21D;69555;53.014;8.886;2024-03-08T11:19:24;7.34;67.75
34145;HTU21D;69555;53.014;8.886;2024-03-08T11:22:03;7.62;65.15
34145;HTU21D;69555;53.014;8.886;2024-03-08T11:24:42;7.44;65.73
34145;HTU21D;69555;53.014;8.886;2024-03-08T11:27:07;7.64;65.72
34145;HTU21D;69555;53.014;8.886;2024-03-08T11:29:36;7.35;68.01
34145;HTU21D;69555;53.014;8.886;2024-03-08T11:34:33;7.27;64.96
34145;HTU21D;69555;53.014;8.886;2024-03-08T11:36:59;7.07;65.52
34145;HTU21D;69555;53.014;8.886;2024-03-08T11:39:25;7.24;66.10
34145;HTU21D;69555;53.014;8.886;2024-03-08T11:41:50;7.54;64.76
34145;HTU21D;69555;53.014;8.886;2024-03-08T11:44:18;7.62;63.89
34145;HTU21D;69555;53.014;8.886;2024-03-08T11:46:44;7.58;65.82
34145;HTU21D;69555;53.014;8.886;2024-03-08T11:49:14;7.76;63.89
34145;HTU21D;69555;53.014;8.886;2024-03-08T11:51:41;7.61;64.16
34145;HTU21D;69555;53.014;8.886;2024-03-08T11:54:12;7.53;65.09
34145;HTU21D;69555;53.014;8.886;2024-03-08T11:56:40;7.42;64.93
34145;HTU21D;69555;53.014;8.886;2024-03-08T11:59:13;7.53;65.28
34145;HTU21D;69555;53.014;8.886;2024-03-08T12:01:38;7.35;64.55
34145;HTU21D;69555;53.014;8.886;2024-03-08T12:04:05;7.58;66.81
34145;HTU21D;69555;53.014;8.886;2024-03-08T12:06:39;7.56;65.01
34145;HTU21D;69555;53.014;8.886;2024-03-08T12:09:12;7.67;62.35
34145;HTU21D;69555;53.014;8.886;2024-03-08T12:11:38;7.50;63.66
34145;HTU21D;69555;53.014;8.886;2024-03-08T12:14:04;7.48;64.50
34145;HTU21D;69555;53.014;8.886;2024-03-08T12:16:32;7.44;64.24
34145;HTU21D;69555;53.014;8.886;2024-03-08T12:18:59;7.41;63.07
34145;HTU21D;69555;53.014;8.886;2024-03-08T12:21:26;7.68;64.17
34145;HTU21D;69555;53.014;8.886;2024-03-08T12:24:08;7.57;63.78
34145;HTU21D;69555;53.014;8.886;2024-03-08T12:26:36;7.53;63.77
34145;HTU21D;69555;53.014;8.886;2024-03-08T12:29:18;7.56;64.87
34145;HTU21D;69555;53.014;8.886;2024-03-08T12:31:58;7.72;65.26
34145;HTU21D;69555;53.014;8.886;2024-03-08T12:34:26;7.73;64.05
34145;HTU21D;69555;53.014;8.886;2024-03-08T12:36:54;7.56;63.51
34145;HTU21D;69555;53.014;8.886;2024-03-08T12:39:21;7.85;64.95
34145;HTU21D;69555;53.014;8.886;2024-03-08T12:41:56;7.88;63.65
34145;HTU21D;69555;53.014;8.886;2024-03-08T12:44:25;7.85;63.77
34145;HTU21D;69555;53.014;8.886;2024-03-08T12:46:52;7.53;62.06
34145;HTU21D;69555;53.014;8.886;2024-03-08T12:49:19;7.76;64.02
34145;HTU21D;69555;53.014;8.886;2024-03-08T12:51:48;7.99;64.85
34145;HTU21D;69555;53.014;8.886;2024-03-08T12:54:14;8.02;63.03
34145;HTU21D;69555;53.014;8.886;2024-03-08T12:56:40;8.02;62.97
34145;HTU21D;69555;53.014;8.886;2024-03-08T12:59:07;7.99;62.95
34145;HTU21D;69555;53.014;8.886;2024-03-08T13:01:35;7.92;63.10
34145;HTU21D;69555;53.014;8.886;2024-03-08T13:04:04;7.96;63.14
34145;HTU21D;69555;53.014;8.886;2024-03-08T13:06:32;7.73;62.59
34145;HTU21D;69555;53.014;8.886;2024-03-08T13:08:59;7.94;65.33
34145;HTU21D;69555;53.014;8.886;2024-03-08T13:11:30;8.15;64.01
34145;HTU21D;69555;53.014;8.886;2024-03-08T13:13:56;8.12;63.96
34145;HTU21D;69555;53.014;8.886;2024-03-08T13:16:25;8.08;64.26
34145;HTU21D;69555;53.014;8.886;2024-03-08T13:18:56;8.05;62.95
34145;HTU21D;69555;53.014;8.886;2024-03-08T13:21:23;8.19;64.65
34145;HTU21D;69555;53.014;8.886;2024-03-08T13:23:50;8.44;62.82
34145;HTU21D;69555;53.014;8.886;2024-03-08T13:26:18;8.33;63.22
34145;HTU21D;69555;53.014;8.886;2024-03-08T13:28:48;8.35;64.27
34145;HTU21D;69555;53.014;8.886;2024-03-08T13:31:19;8.37;63.72
34145;HTU21D;69555;53.014;8.886;2024-03-08T13:33:45;8.31;64.88
34145;HTU21D;69555;53.014;8.886;2024-03-08T13:36:14;8.27;64.15
34145;HTU21D;69555;53.014;8.886;2024-03-08T13:38:47;8.19;64.44
34145;HTU21D;69555;53.014;8.886;2024-03-08T13:41:14;8.20;64.61
34145;HTU21D;69555;53.014;8.886;2024-03-08T13:43:42;8.29;63.24
34145;HTU21D;69555;53.014;8.886;2024-03-08T13:46:08;8.31;63.21
34145;HTU21D;69555;53.014;8.886;2024-03-08T13:48:35;8.33;62.82
34145;HTU21D;69555;53.014;8.886;2024-03-08T13:51:05;8.42;62.70
34145;HTU21D;69555;53.014;8.886;2024-03-08T13:53:31;8.57;63.37
34145;HTU21D;69555;53.014;8.886;2024-03-08T13:55:58;8.63;65.79
34145;HTU21D;69555;53.014;8.886;2024-03-08T13:58:24;8.68;64.61
34145;HTU21D;69555;53.014;8.886;2024-03-08T14:00:49;8.39;62.49
34145;HTU21D;69555;53.014;8.886;2024-03-08T14:03:16;8.48;64.85
34145;HTU21D;69555;53.014;8.886;2024-03-08T14:05:42;8.50;63.02
34145;HTU21D;69555;53.014;8.886;2024-03-08T14:08:09;8.57;64.48
34145;HTU21D;69555;53.014;8.886;2024-03-08T14:10:36;8.42;63.38
34145;HTU21D;69555;53.014;8.886;2024-03-08T14:13:04;8.37;64.33
34145;HTU21D;69555;53.014;8.886;2024-03-08T14:15:32;8.51;64.12
34145;HTU21D;69555;53.014;8.886;2024-03-08T14:17:57;8.41;62.87
34145;HTU21D;69555;53.014;8.886;2024-03-08T14:20:23;8.47;65.03
34145;HTU21D;69555;53.014;8.886;2024-03-08T14:22:55;8.60;62.66
34145;HTU21D;69555;53.014;8.886;2024-03-08T14:25:23;8.57;63.31
34145;HTU21D;69555;53.014;8.886;2024-03-08T14:27:54;8.46;64.12
34145;HTU21D;69555;53.014;8.886;2024-03-08T14:30:24;8.57;63.98
34145;HTU21D;69555;53.014;8.886;2024-03-08T14:33:06;8.45;63.89
34145;HTU21D;69555;53.014;8.886;2024-03-08T14:35:35;8.48;63.31
34145;HTU21D;69555;53.014;8.886;2024-03-08T14:38:02;8.49;63.19
34145;HTU21D;69555;53.014;8.886;2024-03-08T14:40:28;8.51;62.38
34145;HTU21D;69555;53.014;8.886;2024-03-08T14:42:57;8.51;63.68
34145;HTU21D;69555;53.014;8.886;2024-03-08T14:45:22;8.57;63.05
34145;HTU21D;69555;53.014;8.886;2024-03-08T14:47:50;8.61;65.53
34145;HTU21D;69555;53.014;8.886;2024-03-08T14:50:25;8.66;63.66
34145;HTU21D;69555;53.014;8.886;2024-03-08T14:52:52;8.47;64.14
34145;HTU21D;69555;53.014;8.886;2024-03-08T14:55:19;8.56;64.00
34145;HTU21D;69555;53.014;8.886;2024-03-08T14:57:47;8.65;65.50
34145;HTU21D;69555;53.014;8.886;2024-03-08T15:00:16;8.65;65.27
34145;HTU21D;69555;53.014;8.886;2024-03-08T15:02:45;8.52;61.96
34145;HTU21D;69555;53.014;8.886;2024-03-08T15:05:13;8.52;63.34
34145;HTU21D;69555;53.014;8.886;2024-03-08T15:07:39;8.52;64.47
34145;HTU21D;69555;53.014;8.886;2024-03-08T15:10:08;8.55;62.88
34145;HTU21D;69555;53.014;8.886;2024-03-08T15:12:44;8.49;63.49
34145;HTU21D;69555;53.014;8.886;2024-03-08T15:15:12;8.48;62.71
34145;HTU21D;69555;53.014;8.886;2024-03-08T15:17:39;8.53;63.53
34145;HTU21D;69555;53.014;8.886;2024-03-08T15:20:06;8.57;64.85
34145;HTU21D;69555;53.014;8.886;2024-03-08T15:22:46;8.57;64.20
34145;HTU21D;69555;53.014;8.886;2024-03-08T15:25:13;8.67;65.46
34145;HTU21D;69555;53.014;8.886;2024-03-08T15:27:47;8.56;64.45
34145;HTU21D;69555;53.014;8.886;2024-03-08T15:30:15;8.60;63.78
34145;HTU21D;69555;53.014;8.886;2024-03-08T15:32:48;8.55;64.09
34145;HTU21D;69555;53.014;8.886;2024-03-08T15:35:17;8.56;65.12
34145;HTU21D;69555;53.014;8.886;2024-03-08T15:37:43;8.53;64.40